Date,TemperatureHighF,TemperatureAvgF,TemperatureLowF,DewpointHighF,DewpointAvgF,DewpointLowF,HumidityHigh,HumidityAvg,HumidityLow,PressureMaxIn,PressureMinIn,WindSpeedMaxMPH,WindSpeedAvgMPH,GustSpeedMaxMPH,PrecipitationSumIn
2013-11-1,83.8,64.1,48.6,47.4,41.5,31.7,78,49,17,30.01,29.85,1,0,5,0.00
2013-11-2,82.8,64.2,52.3,58.0,43.8,31.4,87,52,19,29.90,29.80,2,0,7,0.00
2013-11-3,69.9,61.6,55.3,55.0,52.9,50.9,90,74,51,29.85,29.75,3,0,6,0.00
2013-11-4,66.1,59.6,51.6,53.2,49.8,46.9,84,70,56,29.86,29.72,1,0,2,0.00
2013-11-5,75.8,59.2,47.9,53.9,33.1,14.4,93,50,10,30.04,29.87,1,0,2,0.00
2013-11-6,80.7,60.5,44.8,38.5,30.2,18.4,56,36,12,30.12,30.00,1,0,2,0.00
2013-11-7,83.4,66.2,50.5,40.8,30.5,17.3,54,31,10,30.03,29.90,1,0,2,0.00
2013-11-8,79.0,62.3,49.1,53.5,39.4,28.3,88,47,19,29.95,29.85,1,0,3,0.00
2013-11-9,76.5,58.6,44.6,53.9,45.0,26.5,94,68,16,30.00,29.92,0,0,1,0.00
2013-11-10,82.6,61.2,50.1,55.2,40.7,14.3,85,57,9,30.06,29.94,1,0,5,0.00
2013-11-11,76.3,60.0,47.0,54.0,45.5,35.6,86,62,29,30.05,29.94,1,0,2,0.00
2013-11-12,73.7,61.8,51.1,56.4,51.0,44.5,88,69,45,30.09,29.97,0,0,0,0.00
2013-11-13,61.8,57.3,54.7,47.0,43.5,40.6,72,61,47,29.97,29.82,0,0,0,0.00
2013-11-14,89.0,68.7,55.3,54.3,39.8,26.9,83,41,12,29.84,29.69,2,0,3,0.00
2013-11-15,67.8,61.3,56.7,56.2,53.9,51.5,88,77,59,29.69,29.60,0,0,1,0.00
2013-11-16,66.4,59.1,53.9,53.6,49.2,44.0,90,71,46,29.87,29.67,2,0,6,0.00
2013-11-17,68.3,58.6,51.3,53.6,50.1,47.3,88,75,48,30.02,29.87,2,0,5,0.00
2013-11-18,67.3,58.1,48.6,54.3,51.0,45.8,93,78,58,30.08,29.97,1,0,3,0.00
2013-11-19,64.7,59.2,55.4,53.6,52.2,50.2,88,78,61,30.01,29.88,1,0,3,0.00
2013-11-20,65.5,59.7,54.8,56.2,53.1,50.8,92,80,59,29.90,29.81,1,0,3,0.06
2013-11-21,60.9,58.4,53.5,58.7,55.7,50.7,96,91,81,29.82,29.76,2,0,5,0.40
2013-11-22,58.0,52.9,49.8,53.6,47.4,39.6,94,82,58,29.88,29.75,0,0,2,0.07
2013-11-23,66.4,53.9,46.2,49.0,42.9,-99.9,89,71,40,30.01,29.87,2,-12,3,0.00
2013-11-24,65.8,53.8,44.6,49.9,44.6,40.7,87,73,46,30.11,30.00,2,0,2,0.00
2013-11-25,69.6,55.6,45.2,48.7,44.1,40.6,85,68,37,30.16,30.07,1,0,2,0.00
2013-11-26,75.3,58.7,46.5,46.3,42.1,34.3,81,58,24,30.11,29.95,1,0,2,0.00
2013-11-27,72.7,59.2,50.1,48.5,43.2,36.5,78,58,30,29.96,29.80,1,0,2,0.00
2013-11-28,67.8,56.3,47.0,48.1,44.2,39.3,80,65,39,29.98,29.81,2,0,7,0.00
2013-11-29,61.3,56.4,52.0,57.3,52.8,46.9,93,88,77,30.10,29.98,0,0,0,0.12
2013-11-30,73.3,58.5,49.6,54.3,49.5,45.0,93,75,39,30.10,29.99,1,0,3,0.00